Time;durP1;ratioP1;P1;durP2;ratioP2;P2;SDS_P1;SDS_P2;PMS_P1;PMS_P2;Temp;Humidity;BMP_temperature;BMP_pressure;BME280_temperature;BME280_humidity;BME280_pressure;Samples;Min_cycle;Max_cycle;Signal;HPM_P1;HPM_P2
2021/05/01 00:01:09;;;;;;;;;;;20.00;59.70;;;;;;5052829;28;19964;-76
2021/05/01 00:03:34;;;;;;;;;;;19.90;59.70;;;;;;5031396;28;19915;-76
2021/05/01 00:06:00;;;;;;;;;;;20.00;59.60;;;;;;5053826;28;19941;-76
2021/05/01 00:08:28;;;;;;;;;;;20.00;59.70;;;;;;5028133;28;20349;-76
2021/05/01 00:11:00;;;;;;;;;;;19.90;59.70;;;;;;5048847;28;19995;-76
2021/05/01 00:13:26;;;;;;;;;;;19.90;59.70;;;;;;5032040;28;20378;-76
2021/05/01 00:15:51;;;;;;;;;;;20.00;59.70;;;;;;5052705;28;19923;-76
2021/05/01 00:18:17;;;;;;;;;;;20.00;59.70;;;;;;5051769;28;19951;-76
2021/05/01 00:20:43;;;;;;;;;;;19.90;59.60;;;;;;5052441;28;20394;-76
2021/05/01 00:23:08;;;;;;;;;;;20.00;59.60;;;;;;5033710;28;19909;-76
2021/05/01 00:25:34;;;;;;;;;;;19.90;59.60;;;;;;5052298;28;19921;-76
2021/05/01 00:27:59;;;;;;;;;;;19.90;59.60;;;;;;5034224;28;19916;-76
2021/05/01 00:30:25;;;;;;;;;;;19.90;59.60;;;;;;5052611;28;19928;-76
2021/05/01 00:32:50;;;;;;;;;;;19.90;59.60;;;;;;5033397;28;19913;-76
2021/05/01 00:35:16;;;;;;;;;;;19.90;59.60;;;;;;5047777;28;20357;-76
2021/05/01 00:37:41;;;;;;;;;;;19.90;59.60;;;;;;5051786;28;19913;-76
2021/05/01 00:40:08;;;;;;;;;;;19.90;59.60;;;;;;5051892;28;19913;-76
2021/05/01 00:42:34;;;;;;;;;;;19.90;59.60;;;;;;5032601;28;19909;-77
2021/05/01 00:44:59;;;;;;;;;;;19.90;59.60;;;;;;5052126;28;20373;-76
2021/05/01 00:47:25;;;;;;;;;;;19.90;59.60;;;;;;5051160;28;19967;-76
2021/05/01 00:49:50;;;;;;;;;;;19.90;59.50;;;;;;5049873;28;19909;-76
2021/05/01 00:52:16;;;;;;;;;;;19.90;59.50;;;;;;5051351;28;19912;-76
2021/05/01 00:54:41;;;;;;;;;;;19.90;59.50;;;;;;5030428;28;20364;-76
2021/05/01 00:57:07;;;;;;;;;;;19.90;59.50;;;;;;5051264;28;19963;-76
2021/05/01 00:59:32;;;;;;;;;;;19.90;59.50;;;;;;5050508;28;19928;-76
2021/05/01 01:02:00;;;;;;;;;;;19.90;59.50;;;;;;5051128;28;19916;-76
2021/05/01 01:04:29;;;;;;;;;;;19.90;59.50;;;;;;5030779;28;19971;-76
2021/05/01 01:06:54;;;;;;;;;;;19.90;59.50;;;;;;5045989;28;19925;-76
2021/05/01 01:09:20;;;;;;;;;;;19.90;59.50;;;;;;5030534;28;20349;-76
2021/05/01 01:11:46;;;;;;;;;;;19.90;59.50;;;;;;5051734;28;19962;-76
2021/05/01 01:14:13;;;;;;;;;;;19.90;59.50;;;;;;5033560;28;19913;-77
2021/05/01 01:16:40;;;;;;;;;;;20.00;59.50;;;;;;5030844;28;19916;-75
2021/05/01 01:19:06;;;;;;;;;;;19.90;59.50;;;;;;5040966;28;19909;-76
2021/05/01 01:21:38;;;;;;;;;;;19.90;59.40;;;;;;5033076;28;19909;-76
2021/05/01 01:24:04;;;;;;;;;;;19.90;59.50;;;;;;5043589;28;20373;-76
2021/05/01 01:26:34;;;;;;;;;;;19.90;59.50;;;;;;5051405;28;19909;-76
2021/05/01 01:29:00;;;;;;;;;;;19.90;59.50;;;;;;5044184;28;19999;-75
2021/05/01 01:31:25;;;;;;;;;;;19.90;59.40;;;;;;5056303;28;19996;-75
2021/05/01 01:33:54;;;;;;;;;;;19.90;59.50;;;;;;5051409;28;19924;-75
2021/05/01 01:36:19;;;;;;;;;;;19.90;59.40;;;;;;5049686;28;19978;-76
2021/05/01 01:38:48;;;;;;;;;;;19.90;59.40;;;;;;5050144;28;19952;-76
2021/05/01 01:41:13;;;;;;;;;;;19.90;59.40;;;;;;5051566;28;20001;-75
2021/05/01 01:43:39;;;;;;;;;;;19.90;59.40;;;;;;5051639;28;19964;-76
2021/05/01 01:46:07;;;;;;;;;;;19.90;59.40;;;;;;5034162;28;19915;-76
2021/05/01 01:48:33;;;;;;;;;;;19.90;59.40;;;;;;5046613;28;19909;-77
2021/05/01 01:50:58;;;;;;;;;;;19.90;59.40;;;;;;5050750;28;20349;-78
2021/05/01 01:53:24;;;;;;;;;;;19.90;59.40;;;;;;5053617;28;19913;-76
2021/05/01 01:55:50;;;;;;;;;;;19.80;59.40;;;;;;5036517;28;20379;-76
2021/05/01 01:58:16;;;;;;;;;;;19.90;59.40;;;;;;5047214;28;19909;-76
2021/05/01 02:00:42;;;;;;;;;;;19.80;59.40;;;;;;5036997;28;19951;-76
2021/05/01 02:03:07;;;;;;;;;;;19.80;59.40;;;;;;5053801;28;19956;-76
2021/05/01 02:05:36;;;;;;;;;;;19.80;59.40;;;;;;5054694;28;19912;-76
2021/05/01 02:08:02;;;;;;;;;;;19.90;59.40;;;;;;5036465;28;19971;-76
2021/05/01 02:10:27;;;;;;;;;;;19.90;59.40;;;;;;5053299;28;19956;-76
2021/05/01 02:12:53;;;;;;;;;;;19.90;59.40;;;;;;5037013;28;19928;-76
2021/05/01 02:15:20;;;;;;;;;;;19.80;59.40;;;;;;5036214;28;19974;-76
2021/05/01 02:17:47;;;;;;;;;;;19.90;59.40;;;;;;5034175;28;19908;-76
2021/05/01 02:20:14;;;;;;;;;;;19.90;59.40;;;;;;5053914;28;19970;-76
2021/05/01 02:22:40;;;;;;;;;;;19.90;59.40;;;;;;5049718;28;19952;-76
2021/05/01 02:25:07;;;;;;;;;;;19.90;59.40;;;;;;5049638;28;19947;-76
2021/05/01 02:27:32;;;;;;;;;;;19.90;59.30;;;;;;5034099;28;19928;-76
2021/05/01 02:29:58;;;;;;;;;;;19.90;59.40;;;;;;5054528;28;19916;-76
2021/05/01 02:32:23;;;;;;;;;;;19.90;59.30;;;;;;5029329;28;19916;-76
2021/05/01 02:34:49;;;;;;;;;;;19.80;59.30;;;;;;5043866;28;20000;-76
2021/05/01 02:37:14;;;;;;;;;;;19.80;59.30;;;;;;5056834;28;20366;-76
2021/05/01 02:39:40;;;;;;;;;;;19.80;59.30;;;;;;5048671;28;19909;-76
2021/05/01 02:42:06;;;;;;;;;;;19.80;59.30;;;;;;5036488;28;19917;-76
2021/05/01 02:44:32;;;;;;;;;;;19.80;59.30;;;;;;5052780;28;19909;-76
2021/05/01 02:47:00;;;;;;;;;;;19.90;59.30;;;;;;5036419;28;20017;-76
2021/05/01 02:49:26;;;;;;;;;;;19.90;59.40;;;;;;5054230;28;19913;-76
2021/05/01 02:51:51;;;;;;;;;;;19.90;59.30;;;;;;5036149;28;20350;-77
2021/05/01 02:54:17;;;;;;;;;;;19.80;59.30;;;;;;5035796;28;20295;-76
2021/05/01 02:56:42;;;;;;;;;;;19.90;59.30;;;;;;5049547;28;20238;-76
2021/05/01 02:59:08;;;;;;;;;;;19.80;59.30;;;;;;5053788;28;19912;-76
2021/05/01 03:01:33;;;;;;;;;;;19.80;59.30;;;;;;5054421;28;19932;-76
2021/05/01 03:03:59;;;;;;;;;;;19.80;59.30;;;;;;5032832;28;20353;-76
2021/05/01 03:06:27;;;;;;;;;;;19.80;59.30;;;;;;5047283;28;20317;-76
2021/05/01 03:08:52;;;;;;;;;;;19.80;59.30;;;;;;5052878;28;19915;-76
2021/05/01 03:11:18;;;;;;;;;;;19.80;59.30;;;;;;5048425;28;19909;-76
2021/05/01 03:13:43;;;;;;;;;;;19.90;59.30;;;;;;5037942;28;19908;-76
2021/05/01 03:16:09;;;;;;;;;;;19.90;59.30;;;;;;5052169;28;19999;-76
2021/05/01 03:18:34;;;;;;;;;;;19.80;59.30;;;;;;5033179;28;19916;-76
2021/05/01 03:21:00;;;;;;;;;;;19.90;59.30;;;;;;5038437;28;19955;-76
2021/05/01 03:23:27;;;;;;;;;;;19.80;59.30;;;;;;5035023;28;19917;-76
2021/05/01 03:25:52;;;;;;;;;;;19.80;59.30;;;;;;5031446;28;19905;-76
2021/05/01 03:28:18;;;;;;;;;;;19.80;59.30;;;;;;5034732;28;20015;-76
2021/05/01 03:30:43;;;;;;;;;;;19.80;59.30;;;;;;5031873;28;19954;-76
2021/05/01 03:33:09;;;;;;;;;;;19.80;59.30;;;;;;5052096;28;20323;-76
2021/05/01 03:35:34;;;;;;;;;;;19.80;59.30;;;;;;5034880;28;19920;-76
2021/05/01 03:38:00;;;;;;;;;;;19.80;59.30;;;;;;5027355;28;19909;-76
2021/05/01 03:40:25;;;;;;;;;;;19.80;59.30;;;;;;5033059;28;19909;-76
2021/05/01 03:42:51;;;;;;;;;;;19.80;59.30;;;;;;5049568;28;19913;-75
2021/05/01 03:45:16;;;;;;;;;;;19.80;59.30;;;;;;5040021;28;20350;-76
2021/05/01 03:47:42;;;;;;;;;;;19.80;59.30;;;;;;5049634;28;20289;-76
2021/05/01 03:50:08;;;;;;;;;;;19.80;59.20;;;;;;5032073;28;19920;-76
2021/05/01 03:52:34;;;;;;;;;;;19.80;59.30;;;;;;5048291;28;19915;-76
2021/05/01 03:55:00;;;;;;;;;;;19.80;59.20;;;;;;5034390;28;19983;-76
2021/05/01 03:57:26;;;;;;;;;;;19.80;59.20;;;;;;5052366;28;19913;-75
2021/05/01 03:59:51;;;;;;;;;;;19.80;59.20;;;;;;5037127;28;20004;-76
2021/05/01 04:02:17;;;;;;;;;;;19.80;59.20;;;;;;5031918;28;20342;-77
2021/05/01 04:04:42;;;;;;;;;;;19.80;59.20;;;;;;5052661;28;19909;-75
2021/05/01 04:07:08;;;;;;;;;;;19.80;59.20;;;;;;5033360;28;19990;-76
2021/05/01 04:09:33;;;;;;;;;;;19.80;59.20;;;;;;5033830;28;19912;-76
2021/05/01 04:11:59;;;;;;;;;;;19.80;59.20;;;;;;5052403;28;20361;-76
2021/05/01 04:14:25;;;;;;;;;;;19.80;59.20;;;;;;5035698;28;19948;-76
2021/05/01 04:16:50;;;;;;;;;;;19.80;59.10;;;;;;5033243;28;19963;-76
2021/05/01 04:19:17;;;;;;;;;;;19.80;59.10;;;;;;5052438;28;19909;-76
2021/05/01 04:21:42;;;;;;;;;;;19.80;59.10;;;;;;5034277;28;19916;-76
2021/05/01 04:24:08;;;;;;;;;;;19.80;59.10;;;;;;5051804;28;19912;-76
2021/05/01 04:26:34;;;;;;;;;;;19.80;59.10;;;;;;5052307;28;20219;-76
2021/05/01 04:29:00;;;;;;;;;;;19.80;59.10;;;;;;5025725;28;19982;-76
2021/05/01 04:31:25;;;;;;;;;;;19.80;59.10;;;;;;5032008;28;20251;-76
2021/05/01 04:33:51;;;;;;;;;;;19.80;59.10;;;;;;5052061;28;19939;-76
2021/05/01 04:36:16;;;;;;;;;;;19.80;59.10;;;;;;5042582;28;20365;-76
2021/05/01 04:38:42;;;;;;;;;;;19.80;59.10;;;;;;5034781;28;19929;-76
2021/05/01 04:41:08;;;;;;;;;;;19.80;59.10;;;;;;5050055;28;19920;-76
2021/05/01 04:43:33;;;;;;;;;;;19.80;59.10;;;;;;5038202;28;20001;-76
2021/05/01 04:45:59;;;;;;;;;;;19.80;59.10;;;;;;5052516;28;19908;-76
2021/05/01 04:48:27;;;;;;;;;;;19.80;59.10;;;;;;5029962;28;20320;-76
2021/05/01 04:50:53;;;;;;;;;;;19.80;59.00;;;;;;5051572;28;19909;-75
2021/05/01 04:53:19;;;;;;;;;;;19.80;59.00;;;;;;5051158;28;19913;-76
2021/05/01 04:55:44;;;;;;;;;;;19.80;59.00;;;;;;5030021;28;20021;-76
2021/05/01 04:58:10;;;;;;;;;;;19.90;59.00;;;;;;5033750;28;19917;-76
2021/05/01 05:00:35;;;;;;;;;;;19.80;58.90;;;;;;5033142;28;20012;-77
2021/05/01 05:03:01;;;;;;;;;;;19.80;58.90;;;;;;5052526;28;19963;-76
2021/05/01 05:05:27;;;;;;;;;;;19.80;58.90;;;;;;5021606;28;19909;-76
2021/05/01 05:07:52;;;;;;;;;;;19.90;59.00;;;;;;5049782;28;19921;-76
2021/05/01 05:10:18;;;;;;;;;;;19.90;59.00;;;;;;5050530;28;19952;-76
2021/05/01 05:12:43;;;;;;;;;;;19.90;59.00;;;;;;5050239;28;19908;-76
2021/05/01 05:15:09;;;;;;;;;;;19.90;59.00;;;;;;5025332;28;20456;-76
2021/05/01 05:17:35;;;;;;;;;;;19.90;59.00;;;;;;5035608;28;19912;-76
2021/05/01 05:20:02;;;;;;;;;;;19.80;59.00;;;;;;5051817;28;21432;-76
2021/05/01 05:22:27;;;;;;;;;;;19.90;59.00;;;;;;5050901;28;19909;-76
2021/05/01 05:24:53;;;;;;;;;;;19.90;59.00;;;;;;5052187;28;20342;-76
2021/05/01 05:27:20;;;;;;;;;;;19.90;59.00;;;;;;5059876;28;19928;-76
2021/05/01 05:29:50;;;;;;;;;;;19.90;58.90;;;;;;5036745;28;19909;-77
2021/05/01 05:32:16;;;;;;;;;;;20.00;58.90;;;;;;5036871;28;19931;-77
2021/05/01 05:34:42;;;;;;;;;;;20.00;58.80;;;;;;5064161;28;19916;-77
2021/05/01 05:37:07;;;;;;;;;;;20.00;58.80;;;;;;5036906;28;19991;-77
2021/05/01 05:39:33;;;;;;;;;;;20.00;58.70;;;;;;5053901;28;20300;-77
2021/05/01 05:41:58;;;;;;;;;;;20.10;58.70;;;;;;5054845;28;19978;-77
2021/05/01 05:44:24;;;;;;;;;;;20.00;58.60;;;;;;5050085;28;20415;-77
2021/05/01 05:46:49;;;;;;;;;;;20.10;58.60;;;;;;5052873;28;19955;-77
2021/05/01 05:49:15;;;;;;;;;;;20.20;58.50;;;;;;5054929;28;19982;-77
2021/05/01 05:51:40;;;;;;;;;;;20.20;58.30;;;;;;5033717;28;20337;-77
2021/05/01 05:54:06;;;;;;;;;;;20.20;58.20;;;;;;5051309;28;20012;-77
2021/05/01 05:56:33;;;;;;;;;;;20.20;58.20;;;;;;5054823;28;20011;-77
2021/05/01 05:58:59;;;;;;;;;;;20.20;58.20;;;;;;5051446;28;20415;-77
2021/05/01 06:01:25;;;;;;;;;;;20.20;58.20;;;;;;5057052;28;19924;-76
2021/05/01 06:03:52;;;;;;;;;;;20.20;58.20;;;;;;5036115;28;19931;-77
2021/05/01 06:06:25;;;;;;;;;;;20.20;58.30;;;;;;5054633;28;19909;-77
2021/05/01 06:08:51;;;;;;;;;;;20.10;58.30;;;;;;5052682;28;19909;-77
2021/05/01 06:11:20;;;;;;;;;;;20.20;58.30;;;;;;5028543;28;19991;-78
2021/05/01 06:13:46;;;;;;;;;;;20.20;58.30;;;;;;5054871;28;19920;-76
2021/05/01 06:16:12;;;;;;;;;;;20.10;58.30;;;;;;5035793;28;19912;-77
2021/05/01 06:18:38;;;;;;;;;;;20.10;58.30;;;;;;5036615;28;19932;-77
2021/05/01 06:21:08;;;;;;;;;;;20.20;58.30;;;;;;5049612;28;20358;-77
2021/05/01 06:23:33;;;;;;;;;;;20.20;58.30;;;;;;5050734;28;20281;-77
2021/05/01 06:26:01;;;;;;;;;;;20.10;58.30;;;;;;5051579;28;19916;-77
2021/05/01 06:28:27;;;;;;;;;;;20.20;58.30;;;;;;5035645;28;19916;-77
2021/05/01 06:30:53;;;;;;;;;;;20.20;58.30;;;;;;5043198;28;19909;-77
2021/05/01 06:33:18;;;;;;;;;;;20.20;58.20;;;;;;5037045;28;19913;-77
2021/05/01 06:35:45;;;;;;;;;;;20.20;58.20;;;;;;5058280;28;19913;-77
2021/05/01 06:38:10;;;;;;;;;;;20.20;58.20;;;;;;5030931;28;19940;-79
2021/05/01 06:40:42;;;;;;;;;;;20.20;58.10;;;;;;5049906;28;20007;-78
2021/05/01 06:43:08;;;;;;;;;;;20.20;58.10;;;;;;5052719;28;19924;-76
2021/05/01 06:45:34;;;;;;;;;;;20.30;58.10;;;;;;5053292;28;19909;-77
2021/05/01 06:48:01;;;;;;;;;;;20.20;58.10;;;;;;5054179;28;19916;-76
2021/05/01 06:50:27;;;;;;;;;;;20.30;58.00;;;;;;5030112;28;19918;-77
2021/05/01 06:52:53;;;;;;;;;;;20.30;58.00;;;;;;5053684;28;20012;-77
2021/05/01 06:55:20;;;;;;;;;;;20.30;57.90;;;;;;5053631;28;19956;-76
2021/05/01 06:57:49;;;;;;;;;;;20.20;57.90;;;;;;5047156;28;19991;-76
2021/05/01 07:00:17;;;;;;;;;;;20.30;57.90;;;;;;5053520;28;19970;-76
2021/05/01 07:02:44;;;;;;;;;;;20.30;57.90;;;;;;5053667;28;20404;-76
2021/05/01 07:05:10;;;;;;;;;;;20.30;57.90;;;;;;5050053;28;19909;-76
2021/05/01 07:07:35;;;;;;;;;;;20.30;57.80;;;;;;5052511;28;19994;-76
2021/05/01 07:10:05;;;;;;;;;;;20.30;57.80;;;;;;5031284;28;20354;-76
2021/05/01 07:12:31;;;;;;;;;;;20.30;57.70;;;;;;5036706;28;19963;-76
2021/05/01 07:15:01;;;;;;;;;;;20.30;57.70;;;;;;5054086;28;20289;-75
2021/05/01 07:17:27;;;;;;;;;;;20.30;57.60;;;;;;5054150;28;19913;-76
2021/05/01 07:19:54;;;;;;;;;;;20.30;57.60;;;;;;5050025;28;19932;-76
2021/05/01 07:22:19;;;;;;;;;;;20.40;57.60;;;;;;5035351;28;19916;-76
2021/05/01 07:24:45;;;;;;;;;;;20.30;57.50;;;;;;5051990;28;19913;-76
2021/05/01 07:27:11;;;;;;;;;;;20.40;57.50;;;;;;5051722;28;20377;-76
2021/05/01 07:29:37;;;;;;;;;;;20.40;57.40;;;;;;5044317;28;20254;-76
2021/05/01 07:32:04;;;;;;;;;;;20.40;57.40;;;;;;5035529;28;19909;-76
2021/05/01 07:34:30;;;;;;;;;;;20.40;57.40;;;;;;5034874;28;20017;-76
2021/05/01 07:36:58;;;;;;;;;;;20.40;57.30;;;;;;5047593;28;20378;-76
2021/05/01 07:39:24;;;;;;;;;;;20.50;57.20;;;;;;5031249;28;19909;-76
2021/05/01 07:41:56;;;;;;;;;;;20.50;57.20;;;;;;5050101;28;19926;-76
2021/05/01 07:44:28;;;;;;;;;;;20.50;57.10;;;;;;5039766;28;19908;-75
2021/05/01 07:46:54;;;;;;;;;;;20.50;57.10;;;;;;5035839;28;19928;-76
2021/05/01 07:49:20;;;;;;;;;;;20.50;57.10;;;;;;5046313;28;19909;-76
2021/05/01 07:51:46;;;;;;;;;;;20.50;57.10;;;;;;5052862;28;19908;-76
2021/05/01 07:54:12;;;;;;;;;;;20.50;57.10;;;;;;5052056;28;19956;-76
2021/05/01 07:56:38;;;;;;;;;;;20.50;57.00;;;;;;5027010;28;19912;-76
2021/05/01 07:59:03;;;;;;;;;;;20.50;57.00;;;;;;5034891;28;19963;-76
2021/05/01 08:01:29;;;;;;;;;;;20.50;56.90;;;;;;5052787;28;19913;-76
2021/05/01 08:03:55;;;;;;;;;;;20.50;57.00;;;;;;5047421;28;19954;-76
2021/05/01 08:06:21;;;;;;;;;;;20.50;56.90;;;;;;5034738;28;19916;-75
2021/05/01 08:08:46;;;;;;;;;;;20.60;56.90;;;;;;5042572;28;19909;-76
2021/05/01 08:11:12;;;;;;;;;;;20.60;56.90;;;;;;5050024;28;19908;-76
2021/05/01 08:13:37;;;;;;;;;;;20.60;56.90;;;;;;5030184;28;20357;-76
2021/05/01 08:16:03;;;;;;;;;;;20.60;56.90;;;;;;5034076;28;19920;-76
2021/05/01 08:18:29;;;;;;;;;;;20.60;56.80;;;;;;5051281;28;20230;-76
2021/05/01 08:20:54;;;;;;;;;;;20.60;56.80;;;;;;5050764;28;19909;-76
2021/05/01 08:23:20;;;;;;;;;;;20.60;56.90;;;;;;5051659;28;20000;-76
2021/05/01 08:25:45;;;;;;;;;;;20.60;56.90;;;;;;5052197;28;19926;-76
2021/05/01 08:28:11;;;;;;;;;;;20.50;57.00;;;;;;5053380;28;20326;-76
2021/05/01 08:30:36;;;;;;;;;;;20.50;57.20;;;;;;5038782;28;19908;-76
2021/05/01 08:33:02;;;;;;;;;;;20.40;57.20;;;;;;5052557;28;19928;-76
2021/05/01 08:35:27;;;;;;;;;;;20.40;57.30;;;;;;5052211;28;19978;-76
2021/05/01 08:37:53;;;;;;;;;;;20.50;57.20;;;;;;5034334;28;19924;-76
2021/05/01 08:40:19;;;;;;;;;;;20.50;57.10;;;;;;5051144;28;19909;-76
2021/05/01 08:42:47;;;;;;;;;;;20.50;57.00;;;;;;5044896;28;19916;-77
2021/05/01 08:45:14;;;;;;;;;;;20.60;56.90;;;;;;5026523;28;19909;-77
2021/05/01 08:47:40;;;;;;;;;;;20.60;56.80;;;;;;5048118;28;19908;-77
2021/05/01 08:50:07;;;;;;;;;;;20.60;56.80;;;;;;5037963;28;20327;-77
2021/05/01 08:52:35;;;;;;;;;;;20.60;56.80;;;;;;5052119;28;19989;-77
2021/05/01 08:55:00;;;;;;;;;;;20.60;56.90;;;;;;5051844;28;19912;-77
2021/05/01 08:57:27;;;;;;;;;;;20.60;56.90;;;;;;5052349;28;19959;-77
2021/05/01 08:59:52;;;;;;;;;;;20.50;56.80;;;;;;5051130;28;19909;-77
2021/05/01 09:02:19;;;;;;;;;;;20.60;56.80;;;;;;5041082;28;19912;-77
2021/05/01 09:04:49;;;;;;;;;;;20.50;56.80;;;;;;5057325;28;20246;-77
2021/05/01 09:07:19;;;;;;;;;;;20.60;56.80;;;;;;5032476;28;19917;-77
2021/05/01 09:09:54;;;;;;;;;;;20.50;56.80;;;;;;5033001;28;19955;-77
2021/05/01 09:12:35;;;;;;;;;;;20.60;56.80;;;;;;5038683;28;20261;-77
2021/05/01 09:15:03;;;;;;;;;;;20.60;56.80;;;;;;5027726;28;19940;-77
2021/05/01 09:17:28;;;;;;;;;;;20.50;56.90;;;;;;5034687;28;19923;-77
2021/05/01 09:20:00;;;;;;;;;;;20.50;56.90;;;;;;5040662;28;20007;-77
2021/05/01 09:22:25;;;;;;;;;;;20.50;56.90;;;;;;5051890;28;19954;-77
2021/05/01 09:25:03;;;;;;;;;;;20.50;57.00;;;;;;5034106;28;19912;-77
2021/05/01 09:27:29;;;;;;;;;;;20.50;57.00;;;;;;5053573;28;19919;-77
2021/05/01 09:29:54;;;;;;;;;;;20.50;57.00;;;;;;5051990;28;19995;-76
2021/05/01 09:32:21;;;;;;;;;;;20.60;57.00;;;;;;5055157;28;20331;-77
2021/05/01 09:34:47;;;;;;;;;;;20.50;56.90;;;;;;5033232;28;19924;-77
2021/05/01 09:37:13;;;;;;;;;;;20.60;56.80;;;;;;5055100;28;19912;-77
2021/05/01 09:40:01;;;;;;;;;;;20.60;56.80;;;;;;5048772;28;19971;-77
2021/05/01 09:42:29;;;;;;;;;;;20.60;56.80;;;;;;5034291;28;19911;-77
2021/05/01 09:45:06;;;;;;;;;;;20.60;56.70;;;;;;5036178;28;19954;-77
2021/05/01 09:47:32;;;;;;;;;;;20.70;56.70;;;;;;5034250;28;20366;-76
2021/05/01 09:49:58;;;;;;;;;;;20.70;56.70;;;;;;5052591;28;19913;-77
2021/05/01 09:52:24;;;;;;;;;;;20.60;56.70;;;;;;5033558;28;19916;-76
2021/05/01 09:54:50;;;;;;;;;;;20.60;56.80;;;;;;5029489;28;19917;-76
2021/05/01 09:57:17;;;;;;;;;;;20.60;56.80;;;;;;5054569;28;20368;-78
2021/05/01 09:59:44;;;;;;;;;;;20.60;56.90;;;;;;5053866;28;20346;-77
2021/05/01 10:02:11;;;;;;;;;;;20.60;57.00;;;;;;5054030;28;19909;-78
2021/05/01 10:04:37;;;;;;;;;;;20.50;57.00;;;;;;5053466;28;20369;-76
2021/05/01 10:07:09;;;;;;;;;;;20.50;57.10;;;;;;5034346;28;19992;-77
2021/05/01 10:09:39;;;;;;;;;;;20.50;57.10;;;;;;5054020;28;19908;-76
2021/05/01 10:12:05;;;;;;;;;;;20.50;57.20;;;;;;5053837;28;19908;-78
2021/05/01 10:14:40;;;;;;;;;;;20.50;57.20;;;;;;5053649;28;19913;-75
2021/05/01 10:17:06;;;;;;;;;;;20.50;57.10;;;;;;5036867;28;20004;-75
2021/05/01 10:19:46;;;;;;;;;;;20.50;57.10;;;;;;5053946;28;20011;-76
2021/05/01 10:22:24;;;;;;;;;;;20.50;57.00;;;;;;5031594;28;20427;-76
2021/05/01 10:24:50;;;;;;;;;;;20.60;57.00;;;;;;5050172;28;19920;-75
2021/05/01 10:27:18;;;;;;;;;;;20.50;57.00;;;;;;5053796;28;19923;-76
2021/05/01 10:29:44;;;;;;;;;;;20.50;57.00;;;;;;5048076;28;19915;-75
2021/05/01 10:32:30;;;;;;;;;;;20.60;57.10;;;;;;5053899;28;19952;-76
2021/05/01 10:35:00;;;;;;;;;;;20.50;57.10;;;;;;5047860;28;20387;-76
2021/05/01 10:37:29;;;;;;;;;;;20.50;57.20;;;;;;5055640;28;19913;-75
2021/05/01 10:39:58;;;;;;;;;;;20.50;57.20;;;;;;5053717;28;19915;-75
2021/05/01 10:42:24;;;;;;;;;;;20.50;57.30;;;;;;5052995;28;20330;-75
2021/05/01 10:44:56;;;;;;;;;;;20.40;57.40;;;;;;5031679;28;20004;-76
2021/05/01 10:47:22;;;;;;;;;;;20.40;57.50;;;;;;5059620;28;19909;-76
2021/05/01 10:49:48;;;;;;;;;;;20.40;57.40;;;;;;5055020;28;19916;-76
2021/05/01 10:52:19;;;;;;;;;;;20.40;57.50;;;;;;5033408;28;20358;-75
2021/05/01 10:54:56;;;;;;;;;;;20.40;57.50;;;;;;5030434;28;20270;-75
2021/05/01 10:57:22;;;;;;;;;;;20.40;57.50;;;;;;5048302;28;19935;-76
2021/05/01 11:00:02;;;;;;;;;;;20.30;57.50;;;;;;5051133;28;20338;-75
2021/05/01 11:02:33;;;;;;;;;;;20.40;57.50;;;;;;5031696;28;19909;-75
2021/05/01 11:04:59;;;;;;;;;;;20.40;57.40;;;;;;5049842;28;19919;-75
2021/05/01 11:07:36;;;;;;;;;;;20.50;57.20;;;;;;5052550;28;19967;-76
2021/05/01 11:10:03;;;;;;;;;;;20.50;57.30;;;;;;5047272;28;19916;-75
2021/05/01 11:12:30;;;;;;;;;;;20.40;57.30;;;;;;5049061;28;20370;-75
2021/05/01 11:15:06;;;;;;;;;;;20.40;57.40;;;;;;5051060;28;19912;-76
2021/05/01 11:17:31;;;;;;;;;;;20.30;57.50;;;;;;5030214;28;20289;-76
2021/05/01 11:20:00;;;;;;;;;;;20.30;57.60;;;;;;5035596;28;19917;-75
2021/05/01 11:22:26;;;;;;;;;;;20.30;57.60;;;;;;5048243;28;20008;-75
2021/05/01 11:24:54;;;;;;;;;;;20.40;57.60;;;;;;5048702;28;19908;-75
2021/05/01 11:27:19;;;;;;;;;;;20.40;57.50;;;;;;5049772;28;20265;-78
2021/05/01 11:29:45;;;;;;;;;;;20.40;57.50;;;;;;5038721;28;19909;-76
2021/05/01 11:32:12;;;;;;;;;;;20.40;57.50;;;;;;5048319;28;20316;-75
2021/05/01 11:34:37;;;;;;;;;;;20.40;57.50;;;;;;5051009;28;19913;-76
2021/05/01 11:37:04;;;;;;;;;;;20.40;57.60;;;;;;5033878;28;19966;-75
2021/05/01 11:39:30;;;;;;;;;;;20.40;57.60;;;;;;5040101;28;19909;-75
2021/05/01 11:41:56;;;;;;;;;;;20.40;57.60;;;;;;5054210;28;20361;-75
2021/05/01 11:44:23;;;;;;;;;;;20.40;57.80;;;;;;5047951;28;19962;-75
2021/05/01 11:46:53;;;;;;;;;;;20.40;57.70;;;;;;5045180;28;19913;-75
2021/05/01 11:49:22;;;;;;;;;;;20.40;57.90;;;;;;5050134;28;19927;-75
2021/05/01 11:52:05;;;;;;;;;;;20.40;57.70;;;;;;5037107;28;20385;-75
2021/05/01 11:54:48;;;;;;;;;;;20.40;57.80;;;;;;5047908;28;19912;-76
2021/05/01 11:57:34;;;;;;;;;;;20.40;57.70;;;;;;5047644;28;20024;-75
2021/05/01 12:00:00;;;;;;;;;;;20.40;57.70;;;;;;5031437;28;19951;-75
2021/05/01 12:02:39;;;;;;;;;;;20.50;57.70;;;;;;5040575;28;19945;-75
2021/05/01 12:05:07;;;;;;;;;;;20.50;57.70;;;;;;5034418;28;20326;-75
2021/05/01 12:07:44;;;;;;;;;;;20.50;57.60;;;;;;5051314;28;19924;-75
2021/05/01 12:10:12;;;;;;;;;;;20.40;57.60;;;;;;5028258;28;19924;-75
2021/05/01 12:12:41;;;;;;;;;;;20.40;57.60;;;;;;5047424;28;20242;-76
2021/05/01 12:15:11;;;;;;;;;;;20.40;57.70;;;;;;5048239;28;19917;-76
2021/05/01 12:17:38;;;;;;;;;;;20.40;57.80;;;;;;5047772;28;19924;-76
2021/05/01 12:20:05;;;;;;;;;;;20.40;57.80;;;;;;5051827;28;19955;-76
2021/05/01 12:22:31;;;;;;;;;;;20.30;57.90;;;;;;5047485;28;19995;-77
2021/05/01 12:24:57;;;;;;;;;;;20.40;58.00;;;;;;5050681;28;20008;-76
2021/05/01 12:27:42;;;;;;;;;;;20.30;58.00;;;;;;5032311;28;19931;-77
2021/05/01 12:30:08;;;;;;;;;;;20.40;58.00;;;;;;5045742;28;19979;-77
2021/05/01 12:32:33;;;;;;;;;;;20.30;58.20;;;;;;5046686;28;20011;-76
2021/05/01 12:34:59;;;;;;;;;;;20.30;58.20;;;;;;5050962;28;19948;-76
2021/05/01 12:37:27;;;;;;;;;;;20.30;58.10;;;;;;5027649;28;19935;-77
2021/05/01 12:39:52;;;;;;;;;;;20.30;58.10;;;;;;5048101;28;19959;-76
2021/05/01 12:42:29;;;;;;;;;;;20.30;58.00;;;;;;5031923;28;20270;-76
2021/05/01 12:44:54;;;;;;;;;;;20.30;58.00;;;;;;5030916;28;19913;-76
2021/05/01 12:47:35;;;;;;;;;;;20.40;58.00;;;;;;5033181;28;19962;-77
2021/05/01 12:50:22;;;;;;;;;;;20.40;58.00;;;;;;5050059;28;19913;-77
2021/05/01 12:52:48;;;;;;;;;;;20.40;58.00;;;;;;5048106;28;19909;-77
2021/05/01 12:55:15;;;;;;;;;;;20.30;58.00;;;;;;5030711;28;20318;-76
2021/05/01 12:57:41;;;;;;;;;;;20.30;58.10;;;;;;5032871;28;19986;-76
2021/05/01 13:00:42;;;;;;;;;;;20.30;58.10;;;;;;5035561;28;19909;-76
2021/05/01 13:03:15;;;;;;;;;;;20.30;58.00;;;;;;4962690;28;20452;-77
2021/05/01 13:05:42;;;;;;;;;;;20.30;58.00;;;;;;5037577;28;19916;-76
2021/05/01 13:08:08;;;;;;;;;;;20.30;58.00;;;;;;5030539;28;19924;-76
2021/05/01 13:10:33;;;;;;;;;;;20.30;58.10;;;;;;5028946;28;19909;-76
2021/05/01 13:12:59;;;;;;;;;;;20.30;58.00;;;;;;5030834;28;19967;-76
2021/05/01 13:15:25;;;;;;;;;;;20.30;58.00;;;;;;5031733;28;19949;-76
2021/05/01 13:18:01;;;;;;;;;;;20.40;58.00;;;;;;5023903;28;19928;-77
2021/05/01 13:20:27;;;;;;;;;;;20.40;58.00;;;;;;5027829;28;20297;-76
2021/05/01 13:22:52;;;;;;;;;;;20.30;58.00;;;;;;5026347;28;19916;-77
2021/05/01 13:25:24;;;;;;;;;;;20.30;58.00;;;;;;5027156;28;19916;-77
2021/05/01 13:27:54;;;;;;;;;;;20.30;58.00;;;;;;5029734;28;19956;-77
2021/05/01 13:30:20;;;;;;;;;;;20.40;58.00;;;;;;5019201;28;20339;-78
2021/05/01 13:32:46;;;;;;;;;;;20.30;58.00;;;;;;5031937;28;19909;-77
2021/05/01 13:35:13;;;;;;;;;;;20.30;58.00;;;;;;5046581;28;19913;-75
2021/05/01 13:37:39;;;;;;;;;;;20.30;58.00;;;;;;5030327;28;19975;-77
2021/05/01 13:40:05;;;;;;;;;;;20.30;58.00;;;;;;5028839;28;19965;-76
2021/05/01 13:42:38;;;;;;;;;;;20.30;58.10;;;;;;5030392;28;20000;-77
2021/05/01 13:45:04;;;;;;;;;;;20.30;58.20;;;;;;5031314;28;20839;-76
2021/05/01 13:47:30;;;;;;;;;;;20.30;58.20;;;;;;5031842;28;19909;-79
2021/05/01 13:49:58;;;;;;;;;;;20.30;58.30;;;;;;5035953;28;20357;-78
2021/05/01 13:52:31;;;;;;;;;;;20.30;58.30;;;;;;5049589;28;19909;-81
2021/05/01 13:55:16;;;;;;;;;;;20.30;58.40;;;;;;5023917;28;19968;-82
2021/05/01 13:57:41;;;;;;;;;;;20.30;58.40;;;;;;5023052;28;20000;-80
2021/05/01 14:00:09;;;;;;;;;;;20.30;58.40;;;;;;5045909;28;19975;-81
2021/05/01 14:02:45;;;;;;;;;;;20.30;58.40;;;;;;5032449;28;20366;-82
2021/05/01 14:05:13;;;;;;;;;;;20.30;58.50;;;;;;5035220;28;19909;-81
2021/05/01 14:07:39;;;;;;;;;;;20.30;58.40;;;;;;5042744;28;20350;-81
2021/05/01 14:10:05;;;;;;;;;;;20.30;58.40;;;;;;5035759;28;19908;-82
2021/05/01 14:12:32;;;;;;;;;;;20.30;58.60;;;;;;5037446;28;19916;-82
2021/05/01 14:14:57;;;;;;;;;;;20.30;58.60;;;;;;5034428;28;20265;-82
2021/05/01 14:17:23;;;;;;;;;;;20.30;58.60;;;;;;5034856;28;19925;-82